Startpagina
METAR-TAF:

METAR-TAF

Vliegvelden :

Harbin, China

breedte: 45-45N, lengte: 126-46E, hoogte: 143 m

Actueel weer

Dit bericht is 21 minuten geleden gemaakt, om 07:00 UTC
Wind 19 kt uit het westen
Temperatuur 21°C
Vochtigheid 12%
Druk 1002 hPa
Zicht 10 km of meer
geen wolken onder 1500 m en geen cumulonimbus

METAR: ZYHB 300700Z 27010MPS CAVOK 21/M09 Q1002 NOSIG

Tijdstip: 15:21 (07:21 UTC)

Verwachting

Dit bericht is 4 uur en het 20 minuten geleden gemaakt, om 03:01 UTC
Verwachting geldig van 30 om 06 UTC tot 31 om 06 UTC
Wind 14 kt uit het westen met uitschieters tot 27 kt
Zicht: 6000 m
Verspreide wolken op 3000 ft
Wijzigt naar
van 30 om 11 UTC tot 30 om 13 UTC
Wind 6 kt uit het zuidwesten

TAF: ZYHB 300301Z 3006/3106 28007G14MPS 6000 SCT030 TX22/3006Z TN11/3020Z BECMG 3011/3013 22003MPS

Waarnemingen en weersverwachtingen van meer dan 4000 vliegvelden (METAR en TAF).

De beschikbare stations zijn de gele en rode punten op de kaart.

Ga met uw muis naar het station om de naam te zien.

Klik dan om waarnemingen en weersverwachtingen te zien.

kaart wijzigen: klik op de groene knoppen met een zwart kruis om in te zoomen, op de groene knop met een streepje om uit te zoomen of op de groene pijlen voor aangrenzende kaarten.


METAR-TAF: